Time;durP1;ratioP1;P1;durP2;ratioP2;P2;SDS_P1;SDS_P2;PMS_P1;PMS_P2;Temp;Humidity;BMP_temperature;BMP_pressure;BME280_temperature;BME280_humidity;BME280_pressure;Samples;Min_cycle;Max_cycle;Signal;HPM_P1;HPM_P2
2021/11/11 00:00:10;;;;;;;4.68;2.08;;;7.00;92.40;;;;;;4958768;28;20047;-74
2021/11/11 00:02:41;;;;;;;4.28;2.42;;;6.90;92.40;;;;;;4960273;28;20093;-75
2021/11/11 00:05:09;;;;;;;5.30;2.42;;;6.90;92.50;;;;;;4937563;28;20129;-73
2021/11/11 00:07:37;;;;;;;6.18;3.28;;;6.90;92.50;;;;;;4956585;28;20058;-76
2021/11/11 00:10:07;;;;;;;6.50;2.92;;;6.80;92.50;;;;;;4958098;28;20125;-74
2021/11/11 00:12:35;;;;;;;6.20;2.40;;;6.80;92.50;;;;;;4957814;28;20050;-76
2021/11/11 00:15:05;;;;;;;7.45;2.78;;;6.80;92.50;;;;;;4951458;28;20798;-75
2021/11/11 00:17:33;;;;;;;6.05;2.95;;;6.70;92.60;;;;;;4956654;28;20467;-74
2021/11/11 00:20:00;;;;;;;5.15;2.40;;;6.70;92.50;;;;;;4956941;28;20065;-74
2021/11/11 00:22:27;;;;;;;5.35;2.45;;;6.70;92.50;;;;;;4961522;28;20114;-74
2021/11/11 00:24:54;;;;;;;5.43;2.75;;;6.70;92.50;;;;;;4928420;28;20043;-75
2021/11/11 00:27:21;;;;;;;6.07;2.80;;;6.70;92.50;;;;;;4952405;28;20474;-76
2021/11/11 00:29:48;;;;;;;5.00;2.08;;;6.60;92.50;;;;;;4955308;28;20051;-75
2021/11/11 00:32:15;;;;;;;6.70;2.45;;;6.60;92.50;;;;;;4951775;28;20078;-75
2021/11/11 00:34:51;;;;;;;5.10;2.38;;;6.60;92.50;;;;;;4954009;28;20039;-75
2021/11/11 00:37:19;;;;;;;4.70;2.55;;;6.50;92.50;;;;;;4955086;28;20043;-74
2021/11/11 00:39:47;;;;;;;4.57;2.15;;;6.50;92.60;;;;;;4928122;28;20028;-75
2021/11/11 00:42:17;;;;;;;4.70;2.50;;;6.50;92.60;;;;;;4956990;28;20040;-74
2021/11/11 00:44:48;;;;;;;5.60;2.80;;;6.40;92.60;;;;;;4958088;28;20988;-74
2021/11/11 00:47:16;;;;;;;6.13;2.97;;;6.40;92.60;;;;;;4954220;28;20051;-74
2021/11/11 00:49:43;;;;;;;5.75;2.65;;;6.40;92.60;;;;;;4951524;28;20550;-74
2021/11/11 00:52:11;;;;;;;5.30;2.55;;;6.40;92.60;;;;;;4933250;28;20051;-75
2021/11/11 00:54:41;;;;;;;5.05;2.42;;;6.40;92.70;;;;;;4940037;28;20051;-74
2021/11/11 00:57:15;;;;;;;5.85;3.28;;;6.40;92.70;;;;;;4957193;28;20138;-78
2021/11/11 00:59:43;;;;;;;4.88;2.22;;;6.40;92.70;;;;;;4952712;28;20047;-78
2021/11/11 01:02:10;;;;;;;4.45;2.42;;;6.40;92.70;;;;;;4955197;28;20097;-78
2021/11/11 01:04:39;;;;;;;4.57;2.35;;;6.40;92.70;;;;;;4944700;28;20075;-78
2021/11/11 01:07:07;;;;;;;4.60;2.38;;;6.40;92.70;;;;;;4962889;28;20057;-78
2021/11/11 01:09:35;;;;;;;5.07;2.15;;;6.50;92.70;;;;;;4955325;28;20057;-78
2021/11/11 01:12:06;;;;;;;4.60;2.00;;;6.50;92.60;;;;;;4951128;28;20032;-78
2021/11/11 01:14:34;;;;;;;4.78;2.53;;;6.50;92.60;;;;;;4945356;28;20054;-78
2021/11/11 01:17:01;;;;;;;5.57;2.83;;;6.60;92.60;;;;;;4924339;28;21483;-78
2021/11/11 01:19:29;;;;;;;5.78;2.83;;;6.60;92.50;;;;;;4946977;28;20093;-78
2021/11/11 01:21:56;;;;;;;5.20;2.10;;;6.60;92.50;;;;;;4925014;28;20055;-78
2021/11/11 01:24:23;;;;;;;4.88;2.22;;;6.60;92.80;;;;;;4960955;28;20043;-78
2021/11/11 01:26:50;;;;;;;4.95;2.28;;;6.60;92.50;;;;;;4955921;28;20043;-79
2021/11/11 01:29:17;;;;;;;6.32;2.78;;;6.60;92.50;;;;;;4939484;28;20054;-78
2021/11/11 01:31:45;;;;;;;5.85;2.72;;;6.60;92.50;;;;;;4956424;28;20043;-78
2021/11/11 01:34:12;;;;;;;6.68;3.50;;;6.70;92.50;;;;;;4929590;28;20106;-78
2021/11/11 01:36:40;;;;;;;6.28;3.55;;;6.70;92.50;;;;;;4942476;28;20573;-78
2021/11/11 01:39:13;;;;;;;10.60;5.22;;;6.80;92.50;;;;;;4927412;28;20070;-78
2021/11/11 01:41:54;;;;;;;7.75;4.97;;;6.80;92.40;;;;;;4974740;28;20051;-78
2021/11/11 01:44:22;;;;;;;10.32;5.00;;;6.90;92.30;;;;;;4933353;28;20047;-78
2021/11/11 01:46:50;;;;;;;8.63;5.97;;;6.90;92.30;;;;;;4961576;28;20458;-78
2021/11/11 01:49:21;;;;;;;9.38;5.32;;;7.00;92.20;;;;;;4932709;28;20049;-78
2021/11/11 01:51:49;;;;;;;7.63;4.40;;;7.00;92.20;;;;;;4947814;28;21450;-78
2021/11/11 01:54:18;;;;;;;9.40;4.93;;;7.10;92.20;;;;;;4942814;28;20145;-78
2021/11/11 01:56:48;;;;;;;8.80;4.90;;;7.10;92.10;;;;;;4942346;28;20110;-78
2021/11/11 01:59:22;;;;;;;;;;;7.20;92.10;;;;;;4948004;28;20515;-78
2021/11/11 02:01:50;;;;;;;6.95;4.30;;;7.20;92.10;;;;;;4945728;28;19927;-78
2021/11/11 02:04:19;;;;;;;6.05;3.63;;;7.20;92.20;;;;;;4936158;28;20051;-78
2021/11/11 02:06:51;;;;;;;7.50;4.07;;;7.30;92.20;;;;;;4934629;28;20058;-78
2021/11/11 02:09:25;;;;;;;6.07;3.10;;;7.30;92.50;;;;;;4944123;28;20118;-78
2021/11/11 02:12:09;;;;;;;6.00;2.72;;;7.30;92.20;;;;;;4937086;28;20039;-78
2021/11/11 02:14:38;;;;;;;4.93;2.92;;;7.40;92.20;;;;;;4963426;28;20043;-78
2021/11/11 02:17:09;;;;;;;6.85;3.30;;;7.40;92.20;;;;;;4945044;28;20057;-78
2021/11/11 02:20:00;;;;;;;7.80;3.47;;;7.40;92.10;;;;;;4939901;28;20050;-78
2021/11/11 02:22:35;;;;;;;5.85;3.00;;;7.50;92.10;;;;;;4948252;28;20047;-78
2021/11/11 02:25:08;;;;;;;6.15;2.60;;;7.50;92.10;;;;;;4942514;28;20053;-78
2021/11/11 02:27:35;;;;;;;5.88;2.90;;;7.60;92.10;;;;;;4961375;28;20035;-78
2021/11/11 02:30:05;;;;;;;5.93;3.13;;;7.60;92.10;;;;;;4948377;28;20046;-78
2021/11/11 02:32:35;;;;;;;6.15;3.88;;;7.60;92.10;;;;;;4943783;28;20467;-78
2021/11/11 02:35:05;;;;;;;5.70;3.33;;;7.60;92.10;;;;;;4945059;28;20050;-78
2021/11/11 02:37:36;;;;;;;;;;;7.60;92.10;;;;;;4946013;28;20137;-78
2021/11/11 02:40:13;;;;;;;4.97;2.47;;;7.60;92.10;;;;;;4947008;28;19926;-75
2021/11/11 02:42:43;;;;;;;6.97;3.08;;;7.60;92.10;;;;;;4960584;28;20049;-76
2021/11/11 02:45:22;;;;;;;5.72;3.40;;;7.60;92.10;;;;;;4944335;28;20452;-76
2021/11/11 02:47:52;;;;;;;6.57;3.25;;;7.60;92.00;;;;;;4940279;28;20089;-76
2021/11/11 02:50:24;;;;;;;6.47;3.00;;;7.70;92.00;;;;;;4942531;28;20051;-76
2021/11/11 02:52:52;;;;;;;6.85;3.33;;;7.70;92.00;;;;;;4928416;28;20062;-76
2021/11/11 02:55:20;;;;;;;7.28;3.15;;;7.70;92.00;;;;;;4939612;28;20055;-76
2021/11/11 02:57:49;;;;;;;6.53;2.92;;;7.70;92.00;;;;;;4946669;28;20570;-76
2021/11/11 03:00:22;;;;;;;6.70;3.50;;;7.70;92.00;;;;;;4963114;28;20130;-76
2021/11/11 03:02:52;;;;;;;5.43;3.10;;;7.70;92.00;;;;;;4961563;28;20090;-76
2021/11/11 03:05:30;;;;;;;6.65;3.05;;;7.70;92.00;;;;;;4938971;28;20047;-76
2021/11/11 03:07:59;;;;;;;;;;;7.70;92.00;;;;;;4941720;28;20053;-75
2021/11/11 03:10:30;;;;;;;5.53;2.63;;;7.70;92.00;;;;;;4943506;28;19961;-76
2021/11/11 03:12:59;;;;;;;5.57;2.88;;;7.70;92.10;;;;;;4927101;28;20492;-76
2021/11/11 03:15:29;;;;;;;4.95;2.63;;;7.70;92.10;;;;;;4974929;28;20050;-75
2021/11/11 03:17:57;;;;;;;5.28;2.67;;;7.70;92.10;;;;;;4949737;28;20126;-76
2021/11/11 03:20:25;;;;;;;7.05;3.08;;;7.60;92.00;;;;;;4961541;28;20066;-77
2021/11/11 03:22:54;;;;;;;8.18;4.47;;;7.60;92.00;;;;;;4961275;28;20047;-76
2021/11/11 03:25:26;;;;;;;6.95;3.30;;;7.60;92.00;;;;;;4936923;28;20051;-75
2021/11/11 03:27:55;;;;;;;7.68;3.60;;;7.50;92.00;;;;;;4935345;28;20042;-76
2021/11/11 03:30:27;;;;;;;6.15;3.55;;;7.50;92.00;;;;;;4930689;28;20063;-75
2021/11/11 03:32:56;;;;;;;6.95;3.22;;;7.50;92.00;;;;;;4934886;28;20043;-76
2021/11/11 03:35:27;;;;;;;5.55;2.80;;;7.50;92.00;;;;;;4962375;28;20055;-76
2021/11/11 03:37:59;;;;;;;7.05;3.45;;;7.50;92.00;;;;;;4960570;28;20057;-75
2021/11/11 03:40:30;;;;;;;5.53;3.33;;;7.50;92.40;;;;;;4958382;28;20484;-75
2021/11/11 03:43:00;;;;;;;7.85;3.17;;;7.50;92.10;;;;;;4944376;28;20054;-75
2021/11/11 03:45:35;;;;;;;6.07;3.08;;;7.50;92.10;;;;;;4947400;28;20067;-76
2021/11/11 03:48:04;;;;;;;6.13;3.35;;;7.50;92.10;;;;;;4939098;28;20039;-75
2021/11/11 03:50:34;;;;;;;8.40;3.97;;;7.50;92.10;;;;;;4958676;28;20110;-76
2021/11/11 03:53:06;;;;;;;6.55;3.63;;;7.50;92.10;;;;;;4934018;28;20051;-75
2021/11/11 03:55:33;;;;;;;5.93;2.75;;;7.50;92.10;;;;;;4943445;28;20051;-75
2021/11/11 03:58:01;;;;;;;5.65;2.45;;;7.50;92.20;;;;;;4956695;28;20043;-76
2021/11/11 04:00:31;;;;;;;8.77;3.28;;;7.50;92.20;;;;;;4958121;28;20066;-75
2021/11/11 04:03:02;;;;;;;8.02;3.55;;;7.50;92.20;;;;;;4947990;28;20050;-76
2021/11/11 04:05:31;;;;;;;6.75;3.42;;;7.50;92.20;;;;;;4943335;28;20092;-75
2021/11/11 04:07:58;;;;;;;6.05;3.30;;;7.50;92.20;;;;;;4943430;28;20039;-75
2021/11/11 04:10:27;;;;;;;6.40;3.33;;;7.50;92.20;;;;;;4941791;28;20047;-75
2021/11/11 04:13:18;;;;;;;5.95;2.83;;;7.50;92.20;;;;;;4946177;28;20046;-76
2021/11/11 04:15:45;;;;;;;6.70;3.00;;;7.50;92.20;;;;;;4945523;28;20526;-76
2021/11/11 04:18:13;;;;;;;5.28;3.00;;;7.50;92.20;;;;;;4936005;28;20054;-76
2021/11/11 04:20:40;;;;;;;5.43;3.17;;;7.50;92.40;;;;;;4918008;28;20048;-76
2021/11/11 04:23:08;;;;;;;5.55;2.92;;;7.50;92.10;;;;;;4958172;28;20532;-76
2021/11/11 04:28:14;;;;;;;8.10;3.03;;;7.60;92.10;;;;;;4940854;28;20465;-75
2021/11/11 04:30:44;;;;;;;5.82;3.40;;;7.60;92.40;;;;;;4942877;28;20051;-76
2021/11/11 04:33:13;;;;;;;7.68;2.67;;;7.60;92.10;;;;;;4945074;28;20058;-76
2021/11/11 04:35:47;;;;;;;6.20;2.92;;;7.60;92.10;;;;;;4944285;28;20051;-75
2021/11/11 04:49:12;;;;;;;5.05;3.17;;;7.70;92.00;;;;;;4942542;28;20413;-76
2021/11/11 05:02:53;;;;;;;7.05;3.10;;;7.70;92.10;;;;;;4951799;28;20039;-76
2021/11/11 05:05:21;;;;;;;5.43;2.60;;;7.70;92.00;;;;;;4934004;28;20059;-75
2021/11/11 05:07:50;;;;;;;6.20;3.13;;;7.70;92.10;;;;;;4931729;28;20043;-75
2021/11/11 05:10:18;;;;;;;4.57;2.42;;;7.70;92.00;;;;;;4947567;28;20050;-75
2021/11/11 05:12:46;;;;;;;4.70;2.65;;;7.70;92.00;;;;;;4960586;28;20071;-76
2021/11/11 05:15:15;;;;;;;6.20;3.30;;;7.70;92.00;;;;;;4963581;28;20496;-75
2021/11/11 05:17:45;;;;;;;5.40;2.88;;;7.80;92.00;;;;;;4946230;28;20105;-76
2021/11/11 05:20:18;;;;;;;6.50;2.40;;;7.80;92.00;;;;;;4946268;28;20069;-76
2021/11/11 05:22:49;;;;;;;5.90;2.47;;;7.80;92.00;;;;;;4960802;28;20038;-76
2021/11/11 05:25:17;;;;;;;8.13;3.47;;;7.80;91.90;;;;;;4950771;28;20331;-76
2021/11/11 05:27:45;;;;;;;5.18;2.72;;;7.90;92.00;;;;;;4961393;28;20066;-76
2021/11/11 05:30:16;;;;;;;6.18;3.47;;;7.80;91.90;;;;;;4947398;28;20042;-75
2021/11/11 05:32:44;;;;;;;7.28;2.97;;;7.90;91.90;;;;;;4947777;28;20059;-76
2021/11/11 05:35:14;;;;;;;5.78;3.33;;;7.90;91.90;;;;;;4963652;28;20057;-75
2021/11/11 05:37:43;;;;;;;5.32;2.95;;;7.90;91.90;;;;;;4949785;28;20082;-76
2021/11/11 05:40:13;;;;;;;6.75;3.25;;;7.90;91.90;;;;;;4929617;28;20043;-76
2021/11/11 05:42:41;;;;;;;5.30;3.30;;;7.90;91.90;;;;;;4961811;28;20060;-76
2021/11/11 05:45:10;;;;;;;6.20;3.35;;;7.90;91.90;;;;;;4947651;28;20039;-76
2021/11/11 05:47:37;;;;;;;6.90;3.53;;;7.90;92.10;;;;;;4927447;28;20057;-76
2021/11/11 05:50:06;;;;;;;5.30;2.85;;;7.90;91.80;;;;;;4946439;28;20067;-75
2021/11/11 05:52:35;;;;;;;6.93;3.70;;;7.90;91.80;;;;;;4961608;28;20043;-76
2021/11/11 05:55:03;;;;;;;5.47;2.65;;;7.90;91.80;;;;;;4955599;28;20057;-76
2021/11/11 05:57:30;;;;;;;5.88;3.35;;;7.90;91.80;;;;;;4933843;28;20141;-76
2021/11/11 05:59:58;;;;;;;6.72;3.33;;;7.90;91.80;;;;;;4945377;28;20051;-76
2021/11/11 06:02:25;;;;;;;5.80;3.13;;;7.90;91.80;;;;;;4921140;28;20046;-76
2021/11/11 06:04:52;;;;;;;6.30;2.90;;;8.00;91.90;;;;;;4949097;28;20847;-76
2021/11/11 06:07:22;;;;;;;6.45;2.78;;;8.00;91.90;;;;;;4950104;28;20043;-76
2021/11/11 06:09:49;;;;;;;5.55;2.85;;;8.00;91.90;;;;;;4946577;28;20047;-75
2021/11/11 06:12:16;;;;;;;6.60;3.20;;;8.00;91.90;;;;;;4944011;28;20066;-76
2021/11/11 06:14:43;;;;;;;7.22;3.47;;;8.00;91.90;;;;;;4961251;28;20532;-76
2021/11/11 06:17:10;;;;;;;5.20;2.83;;;8.00;91.80;;;;;;4928878;28;20043;-76
2021/11/11 06:19:40;;;;;;;6.78;3.10;;;8.00;91.80;;;;;;4918174;28;20042;-76
2021/11/11 06:22:08;;;;;;;6.88;3.58;;;8.00;91.80;;;;;;4958547;28;20125;-76
2021/11/11 06:24:35;;;;;;;6.43;3.35;;;8.00;91.80;;;;;;4941194;28;20048;-76
2021/11/11 06:27:03;;;;;;;10.68;4.55;;;8.00;91.70;;;;;;4940165;28;20063;-76
2021/11/11 06:29:32;;;;;;;6.70;3.95;;;8.00;91.70;;;;;;4922739;28;20047;-76
2021/11/11 06:32:00;;;;;;;7.63;3.55;;;8.00;91.70;;;;;;4959072;28;20039;-76
2021/11/11 06:34:47;;;;;;;6.95;3.88;;;8.00;91.70;;;;;;4948329;28;20046;-76
2021/11/11 06:37:14;;;;;;;7.32;3.33;;;8.00;91.80;;;;;;4945746;28;20883;-76
2021/11/11 06:39:41;;;;;;;8.10;4.07;;;8.00;91.80;;;;;;4945866;28;20146;-76
2021/11/11 06:42:09;;;;;;;6.20;2.85;;;8.00;91.80;;;;;;4942083;28;20035;-76
2021/11/11 06:44:36;;;;;;;7.15;3.10;;;8.00;91.80;;;;;;4960535;28;20098;-76
2021/11/11 06:47:03;;;;;;;4.85;2.90;;;8.00;91.80;;;;;;4928231;28;20055;-76
2021/11/11 06:49:30;;;;;;;6.78;3.20;;;8.00;91.80;;;;;;4944160;28;20066;-76
2021/11/11 06:51:59;;;;;;;5.22;2.88;;;8.00;91.80;;;;;;4943885;28;20062;-76
2021/11/11 06:54:26;;;;;;;7.88;4.30;;;8.00;91.80;;;;;;4957509;28;20081;-76
2021/11/11 06:56:53;;;;;;;7.40;4.00;;;8.00;91.80;;;;;;4955117;28;20050;-76
2021/11/11 06:59:20;;;;;;;6.00;3.63;;;8.00;91.70;;;;;;4954255;28;20042;-76
2021/11/11 07:01:48;;;;;;;7.72;4.15;;;7.90;91.70;;;;;;4946458;28;21974;-76
2021/11/11 07:04:15;;;;;;;5.03;2.47;;;7.90;91.80;;;;;;4936626;28;20046;-76
2021/11/11 07:06:42;;;;;;;6.15;3.05;;;8.00;91.80;;;;;;4946018;28;20050;-76
2021/11/11 07:09:09;;;;;;;5.57;2.60;;;8.00;91.80;;;;;;4926928;28;20118;-76
2021/11/11 07:11:36;;;;;;;7.38;2.88;;;8.00;91.80;;;;;;4943344;28;20046;-75
2021/11/11 07:14:03;;;;;;;5.00;2.60;;;8.00;91.80;;;;;;4945217;28;20086;-76
2021/11/11 07:16:30;;;;;;;5.07;2.55;;;8.00;91.80;;;;;;4959147;28;20046;-75
2021/11/11 07:18:57;;;;;;;6.22;2.70;;;8.00;91.80;;;;;;4934356;28;20447;-76
2021/11/11 07:21:24;;;;;;;4.45;2.83;;;8.00;91.80;;;;;;4950111;28;20116;-76
2021/11/11 07:23:52;;;;;;;5.03;2.65;;;8.10;91.80;;;;;;4951146;28;20161;-76
2021/11/11 07:26:19;;;;;;;4.95;2.70;;;8.10;91.80;;;;;;4931745;28;20054;-76
2021/11/11 07:28:46;;;;;;;6.32;2.90;;;8.10;91.80;;;;;;4930204;28;20090;-76
2021/11/11 07:31:15;;;;;;;7.75;4.35;;;8.10;91.80;;;;;;4929654;28;20121;-76
2021/11/11 07:33:42;;;;;;;5.93;3.38;;;8.10;92.00;;;;;;4939185;28;20106;-76
2021/11/11 07:36:09;;;;;;;7.78;3.67;;;8.20;91.80;;;;;;4945859;28;20130;-76
2021/11/11 07:38:36;;;;;;;5.60;3.20;;;8.20;91.70;;;;;;4944016;28;20598;-76
2021/11/11 07:41:03;;;;;;;8.10;3.55;;;8.20;91.70;;;;;;4942959;28;20066;-76
2021/11/11 07:43:30;;;;;;;8.35;4.25;;;8.20;91.70;;;;;;4943820;28;20066;-76
2021/11/11 07:46:03;;;;;;;7.40;3.60;;;8.20;91.70;;;;;;4961294;28;20090;-76
2021/11/11 07:48:31;;;;;;;7.00;4.38;;;8.20;91.70;;;;;;4961250;28;20035;-76
2021/11/11 07:51:00;;;;;;;6.95;4.15;;;8.20;91.70;;;;;;4961321;28;20035;-76
2021/11/11 07:53:27;;;;;;;8.70;4.30;;;8.20;91.70;;;;;;4948785;28;20485;-76
2021/11/11 07:55:54;;;;;;;8.15;4.03;;;8.20;91.60;;;;;;4960229;28;20086;-75
2021/11/11 07:58:22;;;;;;;9.27;4.80;;;8.20;91.60;;;;;;4944779;28;20050;-76
2021/11/11 08:00:49;;;;;;;6.55;3.92;;;8.20;91.60;;;;;;4960606;28;20035;-76
2021/11/11 08:03:17;;;;;;;7.47;4.03;;;8.20;91.60;;;;;;4935497;28;20466;-76
2021/11/11 08:05:44;;;;;;;9.07;3.70;;;8.30;91.60;;;;;;4945730;28;20038;-76
2021/11/11 08:08:11;;;;;;;6.65;3.35;;;8.30;91.60;;;;;;4944930;28;20035;-76
2021/11/11 08:10:38;;;;;;;8.23;4.55;;;8.40;91.90;;;;;;4950207;28;20728;-75
2021/11/11 08:13:06;;;;;;;8.25;4.47;;;8.40;91.60;;;;;;4937912;28;20138;-76
2021/11/11 08:15:33;;;;;;;6.88;4.13;;;8.40;91.50;;;;;;4946394;28;20059;-75
2021/11/11 08:18:00;;;;;;;6.30;2.95;;;8.40;91.50;;;;;;4944139;29;20704;-76
2021/11/11 08:20:28;;;;;;;6.63;3.80;;;8.50;91.50;;;;;;4942697;28;20043;-76
2021/11/11 08:22:55;;;;;;;6.03;3.70;;;8.50;91.50;;;;;;4957512;28;20073;-75
2021/11/11 08:25:22;;;;;;;7.95;3.35;;;8.50;91.50;;;;;;4962064;28;20081;-75
2021/11/11 08:27:53;;;;;;;7.20;3.22;;;8.50;91.50;;;;;;4956915;28;20067;-75
2021/11/11 08:30:20;;;;;;;6.07;3.63;;;8.50;91.50;;;;;;4945113;28;20396;-74
2021/11/11 08:32:50;;;;;;;6.95;3.22;;;8.50;91.50;;;;;;4963685;28;20105;-82
2021/11/11 08:35:20;;;;;;;5.95;3.58;;;8.50;91.50;;;;;;4964968;28;20085;-77
2021/11/11 08:37:48;;;;;;;6.78;4.25;;;8.50;91.50;;;;;;4961319;28;20046;-77
2021/11/11 08:40:16;;;;;;;7.32;4.15;;;8.50;91.50;;;;;;4956818;28;20048;-76
2021/11/11 08:42:50;;;;;;;8.95;3.78;;;8.50;91.50;;;;;;4948722;28;20051;-76
2021/11/11 08:45:19;;;;;;;6.90;3.78;;;8.50;91.50;;;;;;4959769;28;20039;-76
2021/11/11 08:47:48;;;;;;;7.30;3.97;;;8.50;91.40;;;;;;4943426;28;20412;-76
2021/11/11 08:50:15;;;;;;;7.80;3.55;;;8.60;91.40;;;;;;4940115;28;20768;-76
2021/11/11 08:52:44;;;;;;;6.45;3.15;;;8.60;91.40;;;;;;4937028;28;20043;-76
2021/11/11 08:55:18;;;;;;;6.55;3.40;;;8.60;91.40;;;;;;4962034;28;20038;-76
2021/11/11 08:57:45;;;;;;;6.28;3.42;;;8.60;91.40;;;;;;4973029;28;20047;-76
2021/11/11 09:00:18;;;;;;;6.85;3.85;;;8.60;91.40;;;;;;4940495;28;20511;-76
2021/11/11 09:02:47;;;;;;;7.78;3.53;;;8.60;91.40;;;;;;4960717;28;20101;-76
2021/11/11 09:05:16;;;;;;;6.75;4.35;;;8.70;91.40;;;;;;4943314;28;20047;-76
2021/11/11 09:07:44;;;;;;;9.57;3.80;;;8.70;91.60;;;;;;4968840;28;20045;-77
2021/11/11 09:10:14;;;;;;;7.18;3.97;;;8.70;91.30;;;;;;4945363;28;20060;-77
2021/11/11 09:12:41;;;;;;;9.88;4.20;;;8.80;91.30;;;;;;4968340;28;20057;-77
2021/11/11 09:15:11;;;;;;;7.15;3.33;;;8.80;91.60;;;;;;4953305;28;20050;-76
2021/11/11 09:17:39;;;;;;;6.70;3.53;;;8.80;91.30;;;;;;4963286;28;20049;-76
2021/11/11 09:20:09;;;;;;;6.45;4.05;;;8.80;91.30;;;;;;4946444;28;20122;-77
2021/11/11 09:22:37;;;;;;;6.20;3.40;;;8.90;91.30;;;;;;4944213;28;20122;-76
2021/11/11 09:25:06;;;;;;;6.50;3.90;;;8.90;91.20;;;;;;4948372;28;20043;-77
2021/11/11 09:27:34;;;;;;;6.90;3.75;;;8.90;91.20;;;;;;4958851;28;20043;-77
2021/11/11 09:30:04;;;;;;;7.00;4.25;;;9.00;91.20;;;;;;4967311;28;20054;-75
2021/11/11 09:32:31;;;;;;;11.30;6.20;;;9.00;91.10;;;;;;4941143;28;20054;-77
2021/11/11 09:34:58;;;;;;;11.45;5.95;;;9.00;91.00;;;;;;4949682;28;20043;-76
2021/11/11 09:37:25;;;;;;;10.77;6.43;;;9.00;91.00;;;;;;4949671;28;20461;-77
2021/11/11 09:39:52;;;;;;;9.38;5.35;;;9.00;91.00;;;;;;4936912;28;20083;-77
2021/11/11 09:42:21;;;;;;;7.95;4.93;;;9.10;91.00;;;;;;4945221;28;20546;-77
2021/11/11 09:44:49;;;;;;;9.25;4.88;;;9.20;91.00;;;;;;4957946;28;20058;-78
2021/11/11 09:47:17;;;;;;;8.70;5.68;;;9.20;90.90;;;;;;4966771;28;20043;-76
2021/11/11 09:49:47;;;;;;;8.45;5.30;;;9.30;90.80;;;;;;4952025;28;20035;-76
2021/11/11 09:52:16;;;;;;;9.27;5.72;;;9.30;90.80;;;;;;4961066;28;20043;-77
2021/11/11 10:00:15;;;;;;;13.77;7.07;;;9.40;90.60;;;;;;4953340;28;20047;-77
2021/11/11 10:02:42;;;;;;;13.02;7.38;;;9.40;90.60;;;;;;4933021;28;20122;-78
2021/11/11 10:05:10;;;;;;;12.77;6.88;;;9.50;90.60;;;;;;4966660;28;20125;-77
2021/11/11 10:07:37;;;;;;;12.13;6.20;;;9.60;90.50;;;;;;4966114;28;20042;-77
2021/11/11 10:10:04;;;;;;;11.02;5.68;;;9.60;90.50;;;;;;4947059;28;20455;-77
2021/11/11 10:12:32;;;;;;;10.07;5.43;;;9.70;90.50;;;;;;4968130;28;20074;-77
2021/11/11 10:15:10;;;;;;;11.10;5.97;;;9.70;90.40;;;;;;4943868;28;20499;-76
2021/11/11 10:17:42;;;;;;;9.63;6.03;;;9.80;90.30;;;;;;4962702;28;20039;-76
2021/11/11 10:20:10;;;;;;;10.55;5.65;;;9.80;90.30;;;;;;4941815;28;20079;-76
2021/11/11 10:22:41;;;;;;;9.50;4.68;;;9.80;90.40;;;;;;4954274;28;20106;-77
2021/11/11 10:25:12;;;;;;;13.98;7.50;;;9.90;90.40;;;;;;4948762;28;20039;-77
2021/11/11 10:27:46;;;;;;;10.50;5.32;;;10.00;90.30;;;;;;4953663;28;20047;-76
2021/11/11 10:30:24;;;;;;;9.57;5.20;;;10.00;90.30;;;;;;4962056;28;20421;-77
2021/11/11 10:32:58;;;;;;;10.15;4.88;;;10.10;90.30;;;;;;4958133;28;20054;-77
2021/11/11 10:35:30;;;;;;;8.38;4.65;;;10.10;90.30;;;;;;4963019;28;20047;-77
2021/11/11 10:38:01;;;;;;;13.73;7.32;;;10.20;90.30;;;;;;4944409;28;20094;-77
2021/11/11 10:40:37;;;;;;;14.07;7.43;;;10.20;90.10;;;;;;4966554;28;20496;-78
2021/11/11 10:43:07;;;;;;;14.98;7.93;;;10.20;90.10;;;;;;4960413;28;20042;-78
2021/11/11 10:45:38;;;;;;;12.48;6.53;;;10.20;90.00;;;;;;4958072;28;20065;-76
2021/11/11 10:48:09;;;;;;;9.98;6.10;;;10.30;90.10;;;;;;4959820;28;20062;-76
2021/11/11 10:50:40;;;;;;;10.23;5.72;;;10.30;90.00;;;;;;4961747;28;20042;-77
2021/11/11 10:53:10;;;;;;;10.60;5.25;;;10.40;90.00;;;;;;4960614;28;20062;-77
2021/11/11 10:55:40;;;;;;;8.13;4.43;;;10.50;90.00;;;;;;4963417;28;20439;-75
2021/11/11 10:58:26;;;;;;;10.38;4.03;;;10.50;90.00;;;;;;4954160;28;20484;-77
2021/11/11 11:00:58;;;;;;;7.70;4.22;;;10.60;89.90;;;;;;4965487;28;20038;-77
2021/11/11 11:03:30;;;;;;;14.82;8.82;;;10.60;90.00;;;;;;4958019;28;20567;-77
2021/11/11 11:06:00;;;;;;;12.93;6.80;;;10.70;89.50;;;;;;4948558;28;20059;-77
2021/11/11 11:08:29;;;;;;;11.80;5.75;;;10.70;89.50;;;;;;4962417;28;20039;-76
2021/11/11 11:11:03;;;;;;;11.95;6.05;;;10.70;89.50;;;;;;4965011;28;20039;-76
2021/11/11 11:13:36;;;;;;;11.65;5.70;;;10.80;89.50;;;;;;4957933;28;20046;-76
2021/11/11 11:16:07;;;;;;;11.00;5.70;;;10.80;89.30;;;;;;4956541;28;20503;-75
2021/11/11 11:18:37;;;;;;;14.25;6.55;;;10.80;89.20;;;;;;4932618;28;20046;-75
2021/11/11 11:21:17;;;;;;;9.68;5.75;;;10.80;89.30;;;;;;4955109;28;20164;-75
2021/11/11 11:23:50;;;;;;;10.02;4.50;;;10.80;89.30;;;;;;4959700;28;20426;-76
2021/11/11 11:26:22;;;;;;;12.27;6.18;;;10.80;89.50;;;;;;4955893;28;20074;-76
2021/11/11 11:29:01;;;;;;;11.03;6.10;;;10.80;89.20;;;;;;4948015;28;20047;-75
2021/11/11 11:31:52;;;;;;;11.65;6.57;;;10.80;89.20;;;;;;4956876;28;20295;-76
2021/11/11 11:34:28;;;;;;;14.02;7.03;;;10.80;89.70;;;;;;4966296;28;20097;-78
2021/11/11 11:37:08;;;;;;;10.10;5.85;;;10.80;89.20;;;;;;4944451;28;20055;-78
2021/11/11 11:39:42;;;;;;;8.65;5.70;;;10.70;89.30;;;;;;4950571;28;20119;-77
2021/11/11 11:42:16;;;;;;;10.13;5.43;;;10.70;89.50;;;;;;4952871;28;20551;-76
2021/11/11 11:44:59;;;;;;;13.23;7.07;;;10.70;89.50;;;;;;4958939;28;20126;-77
2021/11/11 11:47:51;;;;;;;12.40;7.10;;;10.70;89.30;;;;;;4967589;28;20058;-76
2021/11/11 11:50:34;;;;;;;11.80;6.43;;;10.60;89.30;;;;;;4955755;28;20095;-73
2021/11/11 11:53:08;;;;;;;14.07;6.78;;;10.50;89.50;;;;;;4961766;28;20074;-76
2021/11/11 11:55:43;;;;;;;12.95;7.03;;;10.50;89.60;;;;;;4960673;28;20094;-77
2021/11/11 11:58:39;;;;;;;14.52;7.30;;;10.50;89.60;;;;;;4961381;28;20127;-76
2021/11/11 12:01:32;;;;;;;13.25;6.57;;;10.50;89.60;;;;;;4940382;28;20047;-78
2021/11/11 12:04:35;;;;;;;12.15;6.72;;;10.50;89.60;;;;;;4946502;28;20051;-78
2021/11/11 12:07:09;;;;;;;17.30;7.85;;;10.50;89.80;;;;;;4958175;28;20107;-77
2021/11/11 12:40:26;;;;;;;14.30;9.13;;;10.50;89.30;;;;;;4926527;29;20119;-77
2021/11/11 12:42:55;;;;;;;14.45;8.60;;;10.50;89.40;;;;;;4943117;28;20055;-76
2021/11/11 12:45:25;;;;;;;14.40;7.70;;;10.50;89.40;;;;;;4934549;28;20622;-76
2021/11/11 12:48:10;;;;;;;13.23;8.43;;;10.50;89.50;;;;;;4949475;28;20451;-76
2021/11/11 12:51:00;;;;;;;15.00;7.95;;;10.60;89.50;;;;;;4948429;28;20687;-77
2021/11/11 12:53:43;;;;;;;18.10;8.63;;;10.60;89.20;;;;;;4945259;28;20046;-77
2021/11/11 12:56:18;;;;;;;14.07;7.80;;;10.50;89.30;;;;;;4951453;28;20122;-75
2021/11/11 12:58:53;;;;;;;11.82;6.93;;;10.50;89.50;;;;;;4952319;28;20082;-75
2021/11/11 13:01:52;;;;;;;12.40;6.13;;;10.50;90.00;;;;;;4957548;28;20439;-76
2021/11/11 13:04:21;;;;;;;11.10;5.68;;;10.60;89.70;;;;;;4954509;28;20059;-76
2021/11/11 13:07:00;;;;;;;10.30;5.90;;;10.60;89.80;;;;;;4957939;28;20042;-76
2021/11/11 13:09:36;;;;;;;8.13;4.80;;;10.70;89.70;;;;;;4953836;28;20468;-76
2021/11/11 13:12:24;;;;;;;10.23;5.68;;;10.80;89.70;;;;;;4958753;28;20067;-76
2021/11/11 13:14:56;;;;;;;9.02;5.40;;;10.80;89.60;;;;;;4958839;28;20088;-76
2021/11/11 13:17:26;;;;;;;11.63;7.95;;;10.90;89.60;;;;;;4936132;28;20142;-76
2021/11/11 13:20:04;;;;;;;12.38;6.97;;;10.90;89.40;;;;;;4960333;28;20495;-76
2021/11/11 13:25:36;;;;;;;14.13;8.10;;;10.90;89.40;;;;;;4952101;28;20039;-76
2021/11/11 15:17:27;;;;;;;5.88;3.33;;;10.90;90.20;;;;;;4969354;28;20050;-78
2021/11/11 15:20:38;;;;;;;8.15;3.60;;;10.90;90.20;;;;;;4960531;28;20520;-78
2021/11/11 15:57:30;;;;;;;6.57;3.58;;;10.70;90.40;;;;;;4961103;28;20122;-78
2021/11/11 16:00:20;;;;;;;7.38;3.95;;;10.70;90.50;;;;;;4963290;28;20055;-79
2021/11/11 16:27:33;;;;;;;6.53;3.30;;;10.40;90.60;;;;;;4960133;28;20043;-83
2021/11/11 16:30:14;;;;;;;6.55;3.33;;;10.50;90.70;;;;;;4950699;28;20147;-80
2021/11/11 16:32:41;;;;;;;5.97;3.13;;;10.40;90.70;;;;;;4965563;28;20035;-80
2021/11/11 16:35:11;;;;;;;8.23;4.28;;;10.50;90.70;;;;;;4966670;28;20054;-79
2021/11/11 16:37:39;;;;;;;6.68;3.78;;;10.50;90.70;;;;;;4959961;28;20039;-76
2021/11/11 16:40:09;;;;;;;8.98;3.88;;;10.50;90.70;;;;;;4955753;28;20066;-75
2021/11/11 16:42:37;;;;;;;5.57;3.00;;;10.50;90.70;;;;;;4956401;28;20070;-75
2021/11/11 16:45:17;;;;;;;7.15;3.92;;;10.50;90.70;;;;;;4960492;28;20047;-75
2021/11/11 16:47:46;;;;;;;7.67;3.73;;;10.40;90.70;;;;;;4952349;28;20118;-75
2021/11/11 16:50:15;;;;;;;6.75;3.38;;;10.50;90.80;;;;;;4960867;28;20042;-76
2021/11/11 16:52:42;;;;;;;7.25;3.80;;;10.50;90.80;;;;;;4952267;28;20118;-78
2021/11/11 16:55:09;;;;;;;7.00;3.53;;;10.40;90.80;;;;;;4939962;28;20396;-78
2021/11/11 16:57:36;;;;;;;6.22;3.40;;;10.40;90.80;;;;;;4948066;29;20051;-76
2021/11/11 17:00:06;;;;;;;7.70;3.88;;;10.40;90.90;;;;;;4940326;28;20039;-74
2021/11/11 17:02:33;;;;;;;6.40;3.28;;;10.30;90.90;;;;;;4953684;28;20043;-75